Time;durP1;ratioP1;P1;durP2;ratioP2;P2;SDS_P1;SDS_P2;PMS_P1;PMS_P2;Temp;Humidity;BMP_temperature;BMP_pressure;BME280_temperature;BME280_humidity;BME280_pressure;Samples;Min_cycle;Max_cycle;Signal;HPM_P1;HPM_P2
2022/01/04 00:00:50;;;;;;;8.67;5.20;;;;;;;;;;5033727;28;20428;-51
2022/01/04 00:03:16;;;;;;;8.13;4.73;;;;;;;;;;5033774;28;20403;-52
2022/01/04 00:05:42;;;;;;;5.57;4.83;;;;;;;;;;5033553;28;20468;-52
2022/01/04 00:08:11;;;;;;;8.30;5.00;;;;;;;;;;5033259;28;20459;-51
2022/01/04 00:10:37;;;;;;;7.87;5.40;;;;;;;;;;5033537;28;20426;-52
2022/01/04 00:13:23;;;;;;;5.03;4.50;;;;;;;;;;5033533;28;20918;-52
2022/01/04 00:15:53;;;;;;;10.30;4.17;;;;;;;;;;5033539;28;20404;-52
2022/01/04 00:18:19;;;;;;;4.90;4.10;;;;;;;;;;5033160;28;20409;-52
2022/01/04 00:20:45;;;;;;;6.50;4.80;;;;;;;;;;5033343;28;20442;-51
2022/01/04 00:23:11;;;;;;;7.10;4.97;;;;;;;;;;5033396;28;20442;-52
2022/01/04 00:25:37;;;;;;;11.90;4.30;;;;;;;;;;5033302;28;20464;-52
2022/01/04 00:28:07;;;;;;;5.60;4.57;;;;;;;;;;5032948;28;20421;-52
2022/01/04 00:30:33;;;;;;;7.07;4.60;;;;;;;;;;5033131;28;20417;-51
2022/01/04 00:32:59;;;;;;;5.80;5.17;;;;;;;;;;5033032;28;20411;-52
2022/01/04 00:35:25;;;;;;;6.50;3.53;;;;;;;;;;5033364;28;20408;-51
2022/01/04 00:37:51;;;;;;;12.10;5.33;;;;;;;;;;5032804;28;20420;-52
2022/01/04 00:40:17;;;;;;;7.40;4.63;;;;;;;;;;5032949;28;20431;-51
2022/01/04 00:42:43;;;;;;;5.73;5.07;;;;;;;;;;5033114;28;20447;-51
2022/01/04 00:45:09;;;;;;;5.23;4.20;;;;;;;;;;5032739;28;20440;-52
2022/01/04 00:49:09;;;;;;;4.77;4.30;;;;;;;;;;5032626;28;20750;-53
2022/01/04 00:50:28;;;;;;;4.80;4.07;;;;;;;;;;5032997;28;20466;-51
2022/01/04 00:52:55;;;;;;;5.50;4.90;;;;;;;;;;5032970;28;20813;-51
2022/01/04 00:55:21;;;;;;;4.87;3.80;;;;;;;;;;5032862;28;20417;-51
2022/01/04 00:57:47;;;;;;;12.60;5.10;;;;;;;;;;5032438;28;20783;-51
2022/01/04 01:00:14;;;;;;;4.47;4.07;;;;;;;;;;5032994;28;20431;-51
2022/01/04 01:02:40;;;;;;;6.77;4.10;;;;;;;;;;5032567;28;20974;-51
2022/01/04 01:05:07;;;;;;;4.13;3.73;;;;;;;;;;5032537;28;20434;-51
2022/01/04 01:07:34;;;;;;;4.70;3.90;;;;;;;;;;5031571;28;20929;-51
2022/01/04 01:12:28;;;;;;;3.63;3.33;;;;;;;;;;5032395;28;20419;-51
2022/01/04 01:14:54;;;;;;;7.73;4.00;;;;;;;;;;5032393;28;20396;-51
2022/01/04 01:17:20;;;;;;;4.20;3.20;;;;;;;;;;5032178;28;20744;-51
2022/01/04 01:19:46;;;;;;;6.93;4.37;;;;;;;;;;5032433;28;20407;-51
2022/01/04 01:22:12;;;;;;;5.67;3.40;;;;;;;;;;5032419;28;20922;-52
2022/01/04 01:24:38;;;;;;;4.47;3.67;;;;;;;;;;5032272;28;20415;-51
2022/01/04 01:27:04;;;;;;;4.13;3.70;;;;;;;;;;5032256;28;20459;-51
2022/01/04 01:29:30;;;;;;;3.93;3.30;;;;;;;;;;5032230;28;20411;-51
2022/01/04 01:31:56;;;;;;;7.97;4.13;;;;;;;;;;5032323;28;20419;-51
2022/01/04 01:34:23;;;;;;;8.53;3.77;;;;;;;;;;5031304;28;20956;-51
2022/01/04 01:36:49;;;;;;;5.80;4.37;;;;;;;;;;5032436;28;20462;-51
2022/01/04 01:39:15;;;;;;;5.10;3.83;;;;;;;;;;5032553;28;20415;-50
2022/01/04 01:41:41;;;;;;;4.80;3.67;;;;;;;;;;5032490;28;20435;-51
2022/01/04 01:44:08;;;;;;;6.57;3.90;;;;;;;;;;5032556;28;20423;-50
2022/01/04 01:46:33;;;;;;;5.83;4.50;;;;;;;;;;5031926;28;20457;-51
2022/01/04 01:48:59;;;;;;;6.80;4.40;;;;;;;;;;5032491;28;20872;-51
2022/01/04 01:51:27;;;;;;;12.13;5.70;;;;;;;;;;5031935;28;20435;-50
2022/01/04 01:53:53;;;;;;;6.77;5.27;;;;;;;;;;5031968;28;20910;-50
2022/01/04 01:56:19;;;;;;;6.03;4.50;;;;;;;;;;5031001;28;20502;-50
2022/01/04 01:58:45;;;;;;;9.90;4.90;;;;;;;;;;5032238;28;20501;-51
2022/01/04 02:01:11;;;;;;;10.30;5.10;;;;;;;;;;5032086;28;20939;-51
2022/01/04 02:03:38;;;;;;;4.93;4.43;;;;;;;;;;5030934;28;20408;-50
2022/01/04 02:06:04;;;;;;;6.87;4.50;;;;;;;;;;5031732;28;20447;-51
2022/01/04 02:08:30;;;;;;;7.70;4.43;;;;;;;;;;5031130;28;20457;-51
2022/01/04 02:10:57;;;;;;;8.87;4.97;;;;;;;;;;5032044;28;20427;-51
2022/01/04 02:13:24;;;;;;;9.20;5.10;;;;;;;;;;5031973;28;20411;-51
2022/01/04 02:15:51;;;;;;;7.43;5.10;;;;;;;;;;5032259;28;20942;-51
2022/01/04 02:18:17;;;;;;;9.70;5.53;;;;;;;;;;5033300;28;20813;-51
2022/01/04 02:20:43;;;;;;;8.10;5.57;;;;;;;;;;5036191;28;20534;-51
2022/01/04 02:23:09;;;;;;;8.10;5.57;;;;;;;;;;5036375;28;20883;-51
2022/01/04 02:25:35;;;;;;;6.77;5.37;;;;;;;;;;5035796;28;20451;-51
2022/01/04 02:28:01;;;;;;;10.03;6.27;;;;;;;;;;5036242;28;20887;-50
2022/01/04 02:30:27;;;;;;;7.53;5.50;;;;;;;;;;5036079;28;20423;-50
2022/01/04 02:32:53;;;;;;;12.97;6.47;;;;;;;;;;5035715;28;20848;-50
2022/01/04 02:35:20;;;;;;;12.83;7.60;;;;;;;;;;5035478;28;20439;-50
2022/01/04 02:37:46;;;;;;;12.07;7.73;;;;;;;;;;5035124;28;20418;-50
2022/01/04 02:40:12;;;;;;;12.10;8.20;;;;;;;;;;5035158;28;20419;-50
2022/01/04 02:42:38;;;;;;;10.23;7.27;;;;;;;;;;5035347;28;20400;-51
2022/01/04 02:45:05;;;;;;;11.80;7.20;;;;;;;;;;5035139;28;20429;-50
2022/01/04 02:47:31;;;;;;;9.07;6.50;;;;;;;;;;5035414;28;20420;-50
2022/01/04 02:49:57;;;;;;;9.50;6.47;;;;;;;;;;5035731;28;20399;-51
2022/01/04 02:52:23;;;;;;;9.67;5.97;;;;;;;;;;5036303;28;20409;-51
2022/01/04 02:54:49;;;;;;;8.87;6.00;;;;;;;;;;5035979;28;20398;-51
2022/01/04 02:57:15;;;;;;;7.90;5.93;;;;;;;;;;5035505;28;20407;-51
2022/01/04 02:59:41;;;;;;;8.73;5.90;;;;;;;;;;5035630;28;20407;-51
2022/01/04 03:02:07;;;;;;;7.43;6.20;;;;;;;;;;5035257;28;20962;-51
2022/01/04 03:04:33;;;;;;;7.70;5.77;;;;;;;;;;5035205;28;20891;-52
2022/01/04 03:06:59;;;;;;;8.27;5.30;;;;;;;;;;5034934;28;20523;-50
2022/01/04 03:09:25;;;;;;;8.70;5.93;;;;;;;;;;5034983;28;20413;-50
2022/01/04 03:11:51;;;;;;;6.47;5.47;;;;;;;;;;5035038;28;20420;-51
2022/01/04 03:14:17;;;;;;;7.00;5.77;;;;;;;;;;5034935;28;20397;-51
2022/01/04 03:16:43;;;;;;;6.70;4.90;;;;;;;;;;5034623;28;20421;-51
2022/01/04 03:19:10;;;;;;;6.83;5.03;;;;;;;;;;5034666;28;20494;-51
2022/01/04 03:21:37;;;;;;;7.00;4.97;;;;;;;;;;5034439;28;20999;-51
2022/01/04 03:24:03;;;;;;;6.93;5.00;;;;;;;;;;5034403;28;20454;-51
2022/01/04 03:26:29;;;;;;;8.70;5.67;;;;;;;;;;5034233;28;20457;-50
2022/01/04 03:28:56;;;;;;;5.80;4.73;;;;;;;;;;5034458;28;20405;-51
2022/01/04 03:31:21;;;;;;;4.53;4.10;;;;;;;;;;5033785;28;20424;-51
2022/01/04 03:33:48;;;;;;;6.37;4.90;;;;;;;;;;5034413;28;20422;-51
2022/01/04 03:36:14;;;;;;;5.30;4.80;;;;;;;;;;5034178;28;20435;-51
2022/01/04 03:38:41;;;;;;;5.33;4.67;;;;;;;;;;5033863;28;20499;-52
2022/01/04 03:41:08;;;;;;;6.47;5.30;;;;;;;;;;5034195;28;20871;-51
2022/01/04 03:43:34;;;;;;;6.07;5.03;;;;;;;;;;5034073;28;20409;-51
2022/01/04 03:46:00;;;;;;;6.03;5.17;;;;;;;;;;5034229;28;20851;-52
2022/01/04 03:48:26;;;;;;;7.50;6.00;;;;;;;;;;5033945;28;20883;-51
2022/01/04 03:50:52;;;;;;;6.93;5.73;;;;;;;;;;5033905;28;20522;-51
2022/01/04 03:53:18;;;;;;;9.20;5.80;;;;;;;;;;5034733;28;20473;-52
2022/01/04 03:55:43;;;;;;;12.70;6.30;;;;;;;;;;5033950;28;20441;-51
2022/01/04 03:58:10;;;;;;;7.50;6.00;;;;;;;;;;5033627;28;20407;-51
2022/01/04 04:00:36;;;;;;;10.70;6.30;;;;;;;;;;5033728;28;20434;-51
2022/01/04 04:03:02;;;;;;;6.63;5.23;;;;;;;;;;5033809;28;20406;-51
2022/01/04 04:05:28;;;;;;;6.80;5.37;;;;;;;;;;5033593;28;20446;-51
2022/01/04 04:07:54;;;;;;;8.03;5.23;;;;;;;;;;5033340;28;20404;-52
2022/01/04 04:10:20;;;;;;;5.43;4.53;;;;;;;;;;5033503;28;20461;-51
2022/01/04 04:12:46;;;;;;;6.93;5.13;;;;;;;;;;5033573;28;20415;-52
2022/01/04 04:15:12;;;;;;;7.43;5.90;;;;;;;;;;5033540;28;20401;-51
2022/01/04 04:17:38;;;;;;;7.83;5.03;;;;;;;;;;5033262;28;20535;-51
2022/01/04 04:20:05;;;;;;;9.00;5.60;;;;;;;;;;5033264;28;20404;-51
2022/01/04 04:22:31;;;;;;;8.57;6.50;;;;;;;;;;5033384;28;20422;-51
2022/01/04 04:24:57;;;;;;;7.40;6.10;;;;;;;;;;5033390;28;20410;-52
2022/01/04 04:27:23;;;;;;;8.80;5.60;;;;;;;;;;5032964;28;20455;-51
2022/01/04 04:29:49;;;;;;;7.83;6.10;;;;;;;;;;5033309;28;20458;-51
2022/01/04 04:32:15;;;;;;;8.07;6.10;;;;;;;;;;5033141;28;20424;-51
2022/01/04 04:34:41;;;;;;;9.57;6.33;;;;;;;;;;5033114;28;20396;-51
2022/01/04 04:37:07;;;;;;;9.10;6.23;;;;;;;;;;5032767;28;20883;-51
2022/01/04 04:39:33;;;;;;;8.93;5.70;;;;;;;;;;5033076;28;20411;-51
2022/01/04 04:41:59;;;;;;;7.33;5.77;;;;;;;;;;5032990;28;20429;-51
2022/01/04 04:44:25;;;;;;;8.40;5.50;;;;;;;;;;5032860;28;20509;-51
2022/01/04 04:46:51;;;;;;;7.87;5.73;;;;;;;;;;5032626;28;20451;-51
2022/01/04 04:49:17;;;;;;;10.43;5.83;;;;;;;;;;5032875;28;20415;-51
2022/01/04 04:51:43;;;;;;;7.13;5.10;;;;;;;;;;5032833;28;20442;-51
2022/01/04 04:54:09;;;;;;;7.33;5.50;;;;;;;;;;5032731;28;20880;-51
2022/01/04 04:56:38;;;;;;;8.10;6.07;;;;;;;;;;5032562;28;20534;-51
2022/01/04 04:59:04;;;;;;;8.30;6.33;;;;;;;;;;5032698;28;20407;-51
2022/01/04 05:01:30;;;;;;;8.47;5.87;;;;;;;;;;5032553;28;20940;-52
2022/01/04 05:03:56;;;;;;;10.80;6.43;;;;;;;;;;5032564;28;20495;-52
2022/01/04 05:06:22;;;;;;;8.70;5.90;;;;;;;;;;5032522;28;20913;-52
2022/01/04 05:08:48;;;;;;;8.30;5.37;;;;;;;;;;5032332;28;20884;-51
2022/01/04 05:11:14;;;;;;;8.70;5.83;;;;;;;;;;5032444;28;20477;-51
2022/01/04 05:13:40;;;;;;;6.33;5.20;;;;;;;;;;5032517;28;20403;-52
2022/01/04 05:16:06;;;;;;;7.87;6.10;;;;;;;;;;5032369;28;20404;-52
2022/01/04 05:18:32;;;;;;;7.20;4.83;;;;;;;;;;5032092;28;20929;-52
2022/01/04 05:20:58;;;;;;;7.50;5.97;;;;;;;;;;5032302;28;20463;-52
2022/01/04 05:23:24;;;;;;;11.57;5.53;;;;;;;;;;5032247;28;20467;-52
2022/01/04 05:25:50;;;;;;;7.77;5.80;;;;;;;;;;5032495;28;20458;-52
2022/01/04 05:28:16;;;;;;;10.73;6.10;;;;;;;;;;5032229;28;20402;-50
2022/01/04 05:30:42;;;;;;;7.43;5.10;;;;;;;;;;5032150;28;20420;-51
2022/01/04 05:33:08;;;;;;;8.33;6.13;;;;;;;;;;5032034;28;20883;-52
2022/01/04 05:35:34;;;;;;;7.43;5.33;;;;;;;;;;5032086;28;20599;-50
2022/01/04 05:38:00;;;;;;;10.60;6.27;;;;;;;;;;5031761;28;20407;-50
2022/01/04 05:40:26;;;;;;;8.80;5.90;;;;;;;;;;5031977;28;20434;-50
2022/01/04 05:42:52;;;;;;;10.37;7.30;;;;;;;;;;5032074;28;20403;-50
2022/01/04 05:45:18;;;;;;;10.43;6.87;;;;;;;;;;5031819;28;20907;-50
2022/01/04 05:47:44;;;;;;;10.25;7.03;;;;;;;;;;5031700;28;20408;-51
2022/01/04 05:50:10;;;;;;;12.20;7.60;;;;;;;;;;5032054;28;20166;-51
2022/01/04 05:52:36;;;;;;;9.90;6.07;;;;;;;;;;5031531;28;20405;-51
2022/01/04 05:55:02;;;;;;;10.53;6.60;;;;;;;;;;5031852;28;20403;-50
2022/01/04 05:57:28;;;;;;;10.70;7.13;;;;;;;;;;5031531;28;20407;-51
2022/01/04 05:59:54;;;;;;;12.13;6.63;;;;;;;;;;5031708;28;20471;-51
2022/01/04 06:02:20;;;;;;;8.67;6.17;;;;;;;;;;5031752;28;20423;-52
2022/01/04 06:04:46;;;;;;;13.27;7.30;;;;;;;;;;5031739;28;20556;-50
2022/01/04 06:07:12;;;;;;;9.20;6.30;;;;;;;;;;5031441;28;20459;-51
2022/01/04 06:09:44;;;;;;;11.43;6.13;;;;;;;;;;5031852;28;20438;-50
2022/01/04 06:14:54;;;;;;;10.27;6.77;;;;;;;;;;5031992;28;20389;-51
2022/01/04 06:17:22;;;;;;;9.40;7.30;;;;;;;;;;5031534;28;20412;-50
2022/01/04 06:19:48;;;;;;;13.20;7.50;;;;;;;;;;5031743;28;20779;-50
2022/01/04 06:22:14;;;;;;;14.60;8.67;;;;;;;;;;5031515;28;20424;-51
2022/01/04 06:24:40;;;;;;;10.47;7.20;;;;;;;;;;5031559;28;20420;-50
2022/01/04 06:27:07;;;;;;;10.30;7.10;;;;;;;;;;5031164;28;20965;-51
2022/01/04 06:29:34;;;;;;;10.80;7.03;;;;;;;;;;5031589;28;20410;-50
2022/01/04 06:32:00;;;;;;;13.57;7.77;;;;;;;;;;5031582;28;20606;-50
2022/01/04 06:34:26;;;;;;;14.10;8.50;;;;;;;;;;5031496;28;20406;-50
2022/01/04 06:36:52;;;;;;;11.50;7.40;;;;;;;;;;5031288;28;20891;-50
2022/01/04 06:39:18;;;;;;;15.57;8.93;;;;;;;;;;5031526;28;20789;-50
2022/01/04 06:41:44;;;;;;;15.43;8.67;;;;;;;;;;5031316;28;20517;-50
2022/01/04 06:44:10;;;;;;;15.03;9.30;;;;;;;;;;5031340;28;20514;-50
2022/01/04 06:46:38;;;;;;;14.80;8.47;;;;;;;;;;5031037;28;20456;-51
2022/01/04 06:49:04;;;;;;;15.97;9.07;;;;;;;;;;5031473;28;20552;-51
2022/01/04 06:51:30;;;;;;;16.00;8.37;;;;;;;;;;5031303;28;20415;-51
2022/01/04 06:53:56;;;;;;;14.53;8.60;;;;;;;;;;5031350;28;20397;-51
2022/01/04 06:56:22;;;;;;;15.87;8.73;;;;;;;;;;5031201;28;20508;-51
2022/01/04 06:58:48;;;;;;;12.63;8.20;;;;;;;;;;5031027;28;20896;-52
2022/01/04 07:01:14;;;;;;;13.20;7.87;;;;;;;;;;5030761;28;20423;-51
2022/01/04 07:03:39;;;;;;;14.70;8.37;;;;;;;;;;5030567;28;20875;-51
2022/01/04 07:06:06;;;;;;;16.33;8.97;;;;;;;;;;5032739;28;20477;-50
2022/01/04 07:08:31;;;;;;;16.63;9.17;;;;;;;;;;5034441;28;20483;-50
2022/01/04 07:10:57;;;;;;;10.90;8.10;;;;;;;;;;5034521;28;20506;-51
2022/01/04 07:13:23;;;;;;;13.47;8.00;;;;;;;;;;5034634;28;20395;-51
2022/01/04 07:15:50;;;;;;;16.63;7.83;;;;;;;;;;5034813;28;20752;-51
2022/01/04 07:18:16;;;;;;;17.00;8.67;;;;;;;;;;5034321;28;20403;-51
2022/01/04 07:20:42;;;;;;;17.00;9.57;;;;;;;;;;5034538;28;20431;-51
2022/01/04 07:23:08;;;;;;;15.73;10.07;;;;;;;;;;5034579;28;20415;-51
2022/01/04 07:25:34;;;;;;;17.53;9.20;;;;;;;;;;5034182;28;20496;-51
2022/01/04 07:28:00;;;;;;;18.73;10.40;;;;;;;;;;5034184;28;20442;-51
2022/01/04 07:30:26;;;;;;;16.33;10.23;;;;;;;;;;5034227;28;20423;-52
2022/01/04 07:32:52;;;;;;;15.47;10.23;;;;;;;;;;5034318;28;20399;-52
2022/01/04 07:35:18;;;;;;;14.40;8.23;;;;;;;;;;5034281;28;20426;-51
2022/01/04 07:37:44;;;;;;;21.37;10.33;;;;;;;;;;5033988;28;20434;-50
2022/01/04 07:40:11;;;;;;;17.70;9.83;;;;;;;;;;5034096;28;20963;-51
2022/01/04 07:42:37;;;;;;;19.20;10.43;;;;;;;;;;5034153;28;20403;-51
2022/01/04 07:45:03;;;;;;;16.70;9.70;;;;;;;;;;5033930;28;20432;-51
2022/01/04 07:47:29;;;;;;;17.77;10.13;;;;;;;;;;5034001;28;20462;-51
2022/01/04 07:49:55;;;;;;;18.40;10.03;;;;;;;;;;5035373;28;20412;-51
2022/01/04 07:52:21;;;;;;;19.13;11.23;;;;;;;;;;5042846;28;20416;-51
2022/01/04 07:54:47;;;;;;;17.40;10.73;;;;;;;;;;5033844;28;20396;-51
2022/01/04 07:57:13;;;;;;;21.03;11.00;;;;;;;;;;5033633;28;20439;-52
2022/01/04 07:59:39;;;;;;;24.13;11.53;;;;;;;;;;5034089;28;20856;-51
2022/01/04 08:02:05;;;;;;;18.23;9.77;;;;;;;;;;5033703;28;20439;-50
2022/01/04 08:04:31;;;;;;;20.60;11.10;;;;;;;;;;5033749;28;20498;-50
2022/01/04 08:06:57;;;;;;;22.17;11.93;;;;;;;;;;5033435;28;20974;-50
2022/01/04 08:09:23;;;;;;;21.07;11.60;;;;;;;;;;5033631;28;20486;-50
2022/01/04 08:11:51;;;;;;;23.23;13.27;;;;;;;;;;5033586;28;20424;-51
2022/01/04 08:14:17;;;;;;;23.33;10.77;;;;;;;;;;5033599;28;20399;-51
2022/01/04 08:16:43;;;;;;;23.63;11.50;;;;;;;;;;5033074;28;20910;-52
2022/01/04 08:19:09;;;;;;;22.00;11.40;;;;;;;;;;5033509;28;20438;-52
2022/01/04 08:21:35;;;;;;;21.57;12.00;;;;;;;;;;5033250;28;20455;-51
2022/01/04 08:24:01;;;;;;;17.93;11.27;;;;;;;;;;5033195;28;20593;-50
2022/01/04 08:26:28;;;;;;;17.33;10.53;;;;;;;;;;5033122;28;21228;-51
2022/01/04 08:28:55;;;;;;;18.67;10.43;;;;;;;;;;5033488;28;20821;-51
2022/01/04 08:31:21;;;;;;;19.73;9.93;;;;;;;;;;5033162;28;20839;-50
2022/01/04 08:33:46;;;;;;;15.60;9.33;;;;;;;;;;5033280;28;20399;-51
2022/01/04 08:36:12;;;;;;;19.00;9.30;;;;;;;;;;5033132;28;20486;-51
2022/01/04 08:38:39;;;;;;;20.60;10.30;;;;;;;;;;5033099;28;20419;-51
2022/01/04 08:41:06;;;;;;;16.17;8.93;;;;;;;;;;5032931;28;20518;-51
2022/01/04 08:43:32;;;;;;;17.00;9.57;;;;;;;;;;5032918;28;20431;-51
2022/01/04 08:45:58;;;;;;;14.23;9.23;;;;;;;;;;5032874;28;20451;-51
2022/01/04 08:48:24;;;;;;;15.13;9.10;;;;;;;;;;5032605;28;20418;-51
2022/01/04 08:50:50;;;;;;;14.20;8.17;;;;;;;;;;5032614;28;20791;-51
2022/01/04 08:53:16;;;;;;;12.17;8.30;;;;;;;;;;5033003;28;20822;-51
2022/01/04 08:55:42;;;;;;;14.53;9.47;;;;;;;;;;5032801;28;20411;-51
2022/01/04 08:58:08;;;;;;;12.40;8.83;;;;;;;;;;5032427;28;20422;-51
2022/01/04 09:00:36;;;;;;;14.07;8.60;;;;;;;;;;5032598;28;20435;-50
2022/01/04 09:03:03;;;;;;;14.60;9.50;;;;;;;;;;5032650;28;20787;-51
2022/01/04 09:05:29;;;;;;;20.30;10.93;;;;;;;;;;5031074;28;20841;-50
2022/01/04 09:07:55;;;;;;;17.40;10.30;;;;;;;;;;5032314;28;20403;-51
2022/01/04 09:10:21;;;;;;;20.83;11.07;;;;;;;;;;5032500;28;20788;-51
2022/01/04 09:15:30;;;;;;;18.20;9.87;;;;;;;;;;5032362;28;20415;-51
2022/01/04 09:20:41;;;;;;;21.30;10.07;;;;;;;;;;5032489;28;20464;-50
2022/01/04 09:23:07;;;;;;;18.23;9.60;;;;;;;;;;5032322;28;20403;-50
2022/01/04 09:25:33;;;;;;;18.33;11.17;;;;;;;;;;5031735;28;20846;-51
2022/01/04 09:27:59;;;;;;;22.10;11.43;;;;;;;;;;5030575;28;20452;-52
2022/01/04 09:30:25;;;;;;;17.97;10.57;;;;;;;;;;5031965;28;20883;-50
2022/01/04 09:32:52;;;;;;;22.40;11.57;;;;;;;;;;5032217;28;20845;-50
2022/01/04 09:35:18;;;;;;;30.77;12.30;;;;;;;;;;5032148;28;20810;-50
2022/01/04 09:37:44;;;;;;;22.33;11.93;;;;;;;;;;5031800;28;20400;-50
2022/01/04 09:40:11;;;;;;;22.20;12.00;;;;;;;;;;5031979;28;20399;-50
2022/01/04 09:42:37;;;;;;;20.75;12.00;;;;;;;;;;5032029;28;20491;-50
2022/01/04 09:45:03;;;;;;;22.60;11.20;;;;;;;;;;5032215;28;20177;-50
2022/01/04 09:47:30;;;;;;;24.47;10.83;;;;;;;;;;5031705;28;20925;-50
2022/01/04 09:49:58;;;;;;;25.80;12.37;;;;;;;;;;5031993;28;20525;-50
2022/01/04 09:52:25;;;;;;;24.97;12.30;;;;;;;;;;5031869;28;20410;-50
2022/01/04 09:54:54;;;;;;;17.77;10.83;;;;;;;;;;5032234;28;20805;-50
2022/01/04 09:57:20;;;;;;;22.77;10.90;;;;;;;;;;5032229;28;20432;-50
2022/01/04 09:59:46;;;;;;;21.23;10.50;;;;;;;;;;5031673;28;20402;-51
2022/01/04 10:02:20;;;;;;;20.53;10.23;;;;;;;;;;5031713;28;20482;-50
2022/01/04 10:04:46;;;;;;;17.80;9.50;;;;;;;;;;5031693;28;20462;-50
2022/01/04 10:07:12;;;;;;;21.67;11.63;;;;;;;;;;5031329;28;20515;-50
2022/01/04 10:09:44;;;;;;;16.83;10.40;;;;;;;;;;5031640;28;20448;-50
2022/01/04 10:12:10;;;;;;;21.43;11.53;;;;;;;;;;5031435;28;20452;-50
2022/01/04 10:14:41;;;;;;;21.90;11.23;;;;;;;;;;5031619;28;20412;-50
2022/01/04 10:17:36;;;;;;;27.73;12.73;;;;;;;;;;5031470;28;20489;-50
2022/01/04 10:20:02;;;;;;;24.77;11.63;;;;;;;;;;5022817;28;20416;-50
2022/01/04 10:22:29;;;;;;;20.13;11.83;;;;;;;;;;5031511;28;20417;-50
2022/01/04 10:25:04;;;;;;;21.70;11.50;;;;;;;;;;5031835;28;20427;-51
2022/01/04 10:27:44;;;;;;;26.90;12.30;;;;;;;;;;5029766;28;20457;-51
2022/01/04 10:30:13;;;;;;;20.63;9.93;;;;;;;;;;5031422;28;20415;-51
2022/01/04 10:32:58;;;;;;;22.13;11.17;;;;;;;;;;5041447;28;20479;-50
2022/01/04 10:35:27;;;;;;;13.67;9.40;;;;;;;;;;5051250;28;20422;-51
2022/01/04 10:37:55;;;;;;;20.97;9.70;;;;;;;;;;5049644;28;20468;-50
2022/01/04 10:40:21;;;;;;;21.83;10.97;;;;;;;;;;5054716;28;20788;-50
2022/01/04 10:42:47;;;;;;;20.50;10.77;;;;;;;;;;5055089;28;20407;-50
2022/01/04 10:45:22;;;;;;;20.60;11.20;;;;;;;;;;5054853;28;20422;-50
2022/01/04 10:47:49;;;;;;;23.57;10.90;;;;;;;;;;5055054;28;20399;-50
2022/01/04 10:50:28;;;;;;;20.07;9.40;;;;;;;;;;5054183;28;20945;-49
2022/01/04 10:52:54;;;;;;;18.83;10.67;;;;;;;;;;5055277;28;20440;-50
2022/01/04 10:55:20;;;;;;;21.93;11.00;;;;;;;;;;5053935;28;20903;-50
2022/01/04 10:57:48;;;;;;;15.33;8.93;;;;;;;;;;5054555;28;20406;-51
2022/01/04 11:00:19;;;;;;;14.33;8.97;;;;;;;;;;5054595;28;20487;-51
2022/01/04 11:02:45;;;;;;;15.37;8.87;;;;;;;;;;5053257;28;20405;-51
2022/01/04 11:05:21;;;;;;;17.00;8.97;;;;;;;;;;5053569;28;20390;-50
2022/01/04 11:08:09;;;;;;;17.63;9.17;;;;;;;;;;5051844;28;20430;-51
2022/01/04 11:10:36;;;;;;;15.80;8.67;;;;;;;;;;5053469;28;20419;-50
2022/01/04 11:13:03;;;;;;;11.60;8.03;;;;;;;;;;5054425;28;20382;-52
2022/01/04 11:15:30;;;;;;;13.10;8.83;;;;;;;;;;5054665;28;20391;-51
2022/01/04 11:17:57;;;;;;;10.87;7.20;;;;;;;;;;5054293;28;20392;-51
2022/01/04 11:20:23;;;;;;;12.63;7.90;;;;;;;;;;5054561;28;20444;-51
2022/01/04 11:22:49;;;;;;;15.60;8.60;;;;;;;;;;5054270;28;20898;-50
2022/01/04 11:25:16;;;;;;;18.00;9.47;;;;;;;;;;5054268;28;20594;-50
2022/01/04 11:27:43;;;;;;;14.50;8.87;;;;;;;;;;5052839;28;20454;-51
2022/01/04 11:30:15;;;;;;;11.13;8.20;;;;;;;;;;5054321;28;20411;-51
2022/01/04 11:32:42;;;;;;;12.27;9.10;;;;;;;;;;5054256;28;20422;-50
2022/01/04 11:35:21;;;;;;;16.27;10.20;;;;;;;;;;5054190;28;20407;-52
2022/01/04 11:37:54;;;;;;;18.67;10.90;;;;;;;;;;5053837;28;20423;-51
2022/01/04 11:40:23;;;;;;;19.17;11.30;;;;;;;;;;5054206;28;20422;-50
2022/01/04 11:42:49;;;;;;;18.83;11.57;;;;;;;;;;5054043;28;20746;-52
2022/01/04 11:45:16;;;;;;;20.80;12.77;;;;;;;;;;5053905;28;20419;-51
2022/01/04 11:47:52;;;;;;;19.07;11.80;;;;;;;;;;5053570;28;20455;-50
2022/01/04 11:50:24;;;;;;;19.67;13.40;;;;;;;;;;5053266;28;20423;-51
2022/01/04 11:52:58;;;;;;;20.97;13.27;;;;;;;;;;5053940;28;20402;-52
2022/01/04 11:55:31;;;;;;;19.33;12.40;;;;;;;;;;5053867;28;20493;-51
2022/01/04 11:58:02;;;;;;;20.73;11.77;;;;;;;;;;5053907;28;20490;-50
2022/01/04 12:00:32;;;;;;;23.47;14.33;;;;;;;;;;5053607;28;20419;-50
2022/01/04 12:03:12;;;;;;;20.90;12.37;;;;;;;;;;5053762;28;20416;-50
2022/01/04 12:05:39;;;;;;;17.83;13.03;;;;;;;;;;5052366;28;20787;-50
2022/01/04 12:08:15;;;;;;;18.97;12.70;;;;;;;;;;5053324;28;20405;-51
2022/01/04 12:10:41;;;;;;;22.87;13.73;;;;;;;;;;5053545;28;20477;-52
2022/01/04 12:13:11;;;;;;;23.93;12.90;;;;;;;;;;5054008;28;20459;-51
2022/01/04 12:15:37;;;;;;;22.97;14.00;;;;;;;;;;5053498;28;20782;-51
2022/01/04 12:18:06;;;;;;;18.97;11.87;;;;;;;;;;5053207;28;20498;-51
2022/01/04 12:20:44;;;;;;;19.50;13.13;;;;;;;;;;5053347;28;20446;-51
2022/01/04 12:23:33;;;;;;;20.47;12.13;;;;;;;;;;5053440;28;20424;-51
2022/01/04 12:26:05;;;;;;;18.47;11.80;;;;;;;;;;5053200;28;20479;-51
2022/01/04 12:28:37;;;;;;;20.27;13.13;;;;;;;;;;5051707;28;20825;-51
2022/01/04 12:31:24;;;;;;;21.00;12.60;;;;;;;;;;5053093;28;20462;-51
2022/01/04 12:33:51;;;;;;;21.73;12.30;;;;;;;;;;5053050;28;20398;-50
2022/01/04 12:36:28;;;;;;;20.27;11.90;;;;;;;;;;5053229;28;20410;-50
2022/01/04 12:38:55;;;;;;;22.60;12.93;;;;;;;;;;5052890;28;20775;-50
2022/01/04 12:41:21;;;;;;;30.53;13.97;;;;;;;;;;5052865;28;20432;-51
2022/01/04 12:43:49;;;;;;;22.03;13.77;;;;;;;;;;5052749;28;20485;-51
2022/01/04 12:46:24;;;;;;;19.37;13.10;;;;;;;;;;5052666;28;20588;-51
2022/01/04 12:48:52;;;;;;;21.50;11.90;;;;;;;;;;5052574;28;20879;-51
2022/01/04 12:51:27;;;;;;;27.87;14.87;;;;;;;;;;5052666;28;20416;-53
2022/01/04 12:53:54;;;;;;;29.40;14.40;;;;;;;;;;5052694;28;20395;-51
2022/01/04 12:56:20;;;;;;;26.30;14.50;;;;;;;;;;5052530;28;20414;-50
2022/01/04 12:58:46;;;;;;;28.20;15.03;;;;;;;;;;5052217;28;20933;-50
2022/01/04 13:01:12;;;;;;;23.60;14.50;;;;;;;;;;5052575;28;20421;-51
2022/01/04 13:03:39;;;;;;;25.70;14.20;;;;;;;;;;5051584;28;20400;-51
2022/01/04 13:06:05;;;;;;;25.97;13.47;;;;;;;;;;5052400;28;20471;-51
2022/01/04 13:08:32;;;;;;;28.50;14.93;;;;;;;;;;5038212;28;20993;-51
2022/01/04 13:11:07;;;;;;;30.50;14.50;;;;;;;;;;5052099;28;20415;-51
2022/01/04 13:13:34;;;;;;;28.67;14.30;;;;;;;;;;5052481;28;20414;-52
2022/01/04 13:16:22;;;;;;;21.67;12.70;;;;;;;;;;5052013;28;20454;-51
2022/01/04 13:18:48;;;;;;;29.23;15.63;;;;;;;;;;5050879;28;20457;-51
2022/01/04 13:21:14;;;;;;;25.00;13.37;;;;;;;;;;5052194;28;20505;-51
2022/01/04 13:23:41;;;;;;;23.07;14.50;;;;;;;;;;5052217;28;20896;-51
2022/01/04 13:26:09;;;;;;;24.20;13.47;;;;;;;;;;5052098;28;20457;-51
2022/01/04 13:28:36;;;;;;;25.77;13.27;;;;;;;;;;5051979;28;20396;-51
2022/01/04 13:31:02;;;;;;;26.80;15.80;;;;;;;;;;5051839;28;20431;-51
2022/01/04 13:33:28;;;;;;;30.50;14.60;;;;;;;;;;5052287;28;20779;-51
2022/01/04 13:35:56;;;;;;;30.20;15.07;;;;;;;;;;5051974;28;20412;-51
2022/01/04 13:38:22;;;;;;;26.30;14.00;;;;;;;;;;5051500;28;20461;-51
2022/01/04 13:40:50;;;;;;;27.30;14.63;;;;;;;;;;5051704;28;20419;-51
2022/01/04 13:43:17;;;;;;;25.20;13.67;;;;;;;;;;5051931;28;20787;-51
2022/01/04 13:45:57;;;;;;;24.73;14.60;;;;;;;;;;5051736;28;20505;-51
2022/01/04 13:48:26;;;;;;;28.03;14.23;;;;;;;;;;5051637;28;20462;-51
2022/01/04 13:50:52;;;;;;;26.73;15.00;;;;;;;;;;5051580;28;20800;-51
2022/01/04 13:53:22;;;;;;;24.50;13.60;;;;;;;;;;5052114;28;20722;-52
2022/01/04 13:55:51;;;;;;;22.07;12.40;;;;;;;;;;5051964;28;20792;-51
2022/01/04 13:58:29;;;;;;;24.47;14.47;;;;;;;;;;5051416;28;20409;-51
2022/01/04 14:00:55;;;;;;;27.80;15.10;;;;;;;;;;5051575;28;20434;-51
2022/01/04 14:03:31;;;;;;;25.13;14.37;;;;;;;;;;5051562;28;20408;-54
2022/01/04 14:05:57;;;;;;;26.50;13.80;;;;;;;;;;5051616;28;20482;-50
2022/01/04 14:08:42;;;;;;;26.87;13.10;;;;;;;;;;5051351;28;20409;-50
2022/01/04 14:11:08;;;;;;;36.57;14.27;;;;;;;;;;5051514;28;20429;-50
2022/01/04 14:13:37;;;;;;;28.23;14.03;;;;;;;;;;5051969;28;20962;-50
2022/01/04 14:16:09;;;;;;;19.70;10.27;;;;;;;;;;5055600;28;20463;-50
2022/01/04 14:18:36;;;;;;;17.73;10.53;;;;;;;;;;5055429;28;20421;-50
2022/01/04 14:21:03;;;;;;;28.97;9.93;;;;;;;;;;5055531;28;20926;-50
2022/01/04 14:23:38;;;;;;;23.20;11.83;;;;;;;;;;5055491;28;20475;-50
2022/01/04 14:26:05;;;;;;;29.07;11.73;;;;;;;;;;5055464;28;20446;-50
2022/01/04 14:28:31;;;;;;;19.57;10.23;;;;;;;;;;5054184;28;20496;-52
2022/01/04 14:30:57;;;;;;;24.37;13.00;;;;;;;;;;5055190;28;20421;-50
2022/01/04 14:33:23;;;;;;;17.73;11.00;;;;;;;;;;5055440;28;20520;-53
2022/01/04 14:35:50;;;;;;;13.53;8.43;;;;;;;;;;5055324;28;20402;-51
2022/01/04 14:38:16;;;;;;;11.20;6.90;;;;;;;;;;5055024;28;20467;-50
2022/01/04 14:40:43;;;;;;;13.77;6.87;;;;;;;;;;5055237;28;20513;-50